Time;durP1;ratioP1;P1;durP2;ratioP2;P2;SDS_P1;SDS_P2;PMS_P1;PMS_P2;Temp;Humidity;BMP_temperature;BMP_pressure;BME280_temperature;BME280_humidity;BME280_pressure;Samples;Min_cycle;Max_cycle;Signal;HPM_P1;HPM_P2
2023/03/15 00:00:48;;;;;;;5.57;2.20;;;;;;;24.80;35.17;98427.22;4452478;32;34402;-60
2023/03/15 00:03:15;;;;;;;4.82;2.03;;;;;;;24.78;35.20;98432.13;4450377;32;34981;-58
2023/03/15 00:05:44;;;;;;;8.60;2.53;;;;;;;24.78;35.24;98434.84;4467828;32;34811;-59
2023/03/15 00:08:11;;;;;;;7.05;1.90;;;;;;;24.76;35.31;98435.12;4453578;32;34351;-60
2023/03/15 00:10:45;;;;;;;5.20;2.08;;;;;;;24.76;35.34;98443.31;4453650;32;33638;-58
2023/03/15 00:13:13;;;;;;;5.53;1.87;;;;;;;24.73;35.45;98446.56;4453490;32;33720;-54
2023/03/15 00:15:45;;;;;;;7.03;1.87;;;;;;;24.72;35.51;98450.41;4467690;32;34602;-53
2023/03/15 00:18:13;;;;;;;5.00;2.10;;;;;;;24.72;35.52;98446.84;4440306;32;32569;-59
2023/03/15 00:20:41;;;;;;;5.32;2.10;;;;;;;24.72;35.56;98460.50;4467703;32;33411;-59
2023/03/15 00:23:08;;;;;;;7.80;2.42;;;;;;;24.69;35.65;98454.47;4467597;32;33944;-59
2023/03/15 00:25:36;;;;;;;7.20;2.25;;;;;;;24.69;35.75;98465.38;4452724;32;33915;-58
2023/03/15 00:28:04;;;;;;;4.65;2.03;;;;;;;24.68;35.77;98463.75;4453371;32;33740;-59
2023/03/15 00:30:31;;;;;;;4.15;2.00;;;;;;;24.67;35.80;98467.56;4467730;32;33036;-55
2023/03/15 00:32:59;;;;;;;5.97;2.22;;;;;;;24.66;35.86;98457.72;4467389;32;33816;-59
2023/03/15 00:35:27;;;;;;;5.07;2.10;;;;;;;24.66;35.86;98465.91;4467489;32;34107;-56
2023/03/15 00:37:55;;;;;;;2.90;1.73;;;;;;;24.64;35.98;98457.16;4453105;32;32844;-59
2023/03/15 00:40:23;;;;;;;7.75;1.98;;;;;;;24.63;35.92;98457.44;4467296;32;33420;-59
2023/03/15 00:42:51;;;;;;;8.48;2.17;;;;;;;24.62;36.05;98459.34;4453389;32;33704;-56
2023/03/15 00:45:19;;;;;;;4.47;1.80;;;;;;;24.60;36.07;98445.16;4466847;32;34493;-59
2023/03/15 00:47:53;;;;;;;5.97;1.80;;;;;;;24.61;36.27;98437.78;4467207;32;33628;-57
2023/03/15 00:50:21;;;;;;;4.47;1.70;;;;;;;24.59;36.30;98420.88;4451582;32;33020;-59
2023/03/15 00:52:48;;;;;;;4.07;2.00;;;;;;;24.59;36.41;98429.06;4450208;32;34099;-55
2023/03/15 00:55:17;;;;;;;5.07;1.87;;;;;;;24.58;36.27;98414.63;4450487;32;33470;-53
2023/03/15 00:57:47;;;;;;;5.65;2.30;;;;;;;24.58;36.41;98419.25;4450385;32;34199;-59
2023/03/15 01:00:24;;;;;;;3.85;1.90;;;;;;;24.56;36.42;98419.50;4450341;32;34466;-59
2023/03/15 01:02:53;;;;;;;9.30;2.15;;;;;;;24.56;36.48;98422.22;4451492;32;34675;-58
2023/03/15 01:05:21;;;;;;;5.10;2.08;;;;;;;24.54;36.51;98427.12;4450236;32;33964;-58
2023/03/15 01:07:49;;;;;;;4.10;2.10;;;;;;;24.54;36.57;98429.88;4451243;32;34463;-59
2023/03/15 01:10:17;;;;;;;4.50;2.10;;;;;;;24.53;36.46;98450.03;4454664;32;34265;-58
2023/03/15 01:12:44;;;;;;;7.28;2.12;;;;;;;24.52;36.58;98442.12;4452773;32;33858;-59
2023/03/15 01:15:13;;;;;;;8.38;1.87;;;;;;;24.53;36.74;98441.03;4452736;32;34153;-55
2023/03/15 01:17:40;;;;;;;6.22;2.08;;;;;;;24.51;36.84;98433.13;4454248;32;33928;-59
2023/03/15 01:20:10;;;;;;;7.43;1.85;;;;;;;24.51;36.79;98435.03;4468966;32;32387;-55
2023/03/15 01:22:38;;;;;;;3.85;1.90;;;;;;;24.50;36.57;98428.75;4442362;32;33712;-56
2023/03/15 01:25:08;;;;;;;4.05;1.80;;;;;;;24.48;36.72;98428.22;4468920;32;34940;-60
2023/03/15 01:27:35;;;;;;;4.07;1.75;;;;;;;24.48;36.88;98430.94;4468984;32;33518;-58
2023/03/15 01:30:03;;;;;;;4.15;1.92;;;;;;;24.46;36.84;98435.81;4469165;32;33458;-59
2023/03/15 01:32:32;;;;;;;5.18;2.10;;;;;;;24.46;36.88;98433.09;4455306;32;34595;-60
2023/03/15 01:34:59;;;;;;;3.97;1.90;;;;;;;24.46;36.91;98426.81;4454347;32;32884;-58
2023/03/15 01:37:27;;;;;;;5.95;1.85;;;;;;;24.45;37.00;98436.91;4468802;32;34493;-57
2023/03/15 01:39:55;;;;;;;3.00;1.65;;;;;;;24.43;36.97;98428.16;4469290;32;33118;-59
2023/03/15 01:42:22;;;;;;;4.68;1.83;;;;;;;24.41;37.00;98428.44;4454919;32;33906;-59
2023/03/15 01:44:53;;;;;;;6.47;1.90;;;;;;;24.40;37.05;98437.72;4455002;32;34460;-59
2023/03/15 01:47:24;;;;;;;4.87;1.80;;;;;;;24.40;37.14;98447.81;4468739;32;34247;-59
2023/03/15 01:49:56;;;;;;;5.28;1.67;;;;;;;24.39;37.11;98438.81;4455353;32;33374;-57
2023/03/15 01:52:27;;;;;;;4.47;1.77;;;;;;;24.38;37.13;98436.31;4453626;32;33955;-59
2023/03/15 01:55:04;;;;;;;3.97;1.70;;;;;;;24.39;37.02;98443.44;4452030;32;34883;-56
2023/03/15 01:57:35;;;;;;;5.35;1.90;;;;;;;24.37;37.15;98440.97;4455176;32;34505;-59
2023/03/15 02:00:11;;;;;;;9.98;1.70;;;;;;;24.35;37.15;98445.84;4454953;32;33355;-59
2023/03/15 02:02:59;;;;;;;5.05;1.95;;;;;;;24.34;37.17;98449.66;4454872;32;34827;-60
2023/03/15 02:05:33;;;;;;;5.28;2.53;;;;;;;24.37;37.11;98440.16;4454946;32;34656;-55
2023/03/15 02:08:01;;;;;;;5.12;1.60;;;;;;;24.36;37.13;98443.94;4442396;32;33541;-53
2023/03/15 02:10:34;;;;;;;5.70;1.80;;;;;;;24.34;37.13;98436.03;4442208;32;33453;-60
2023/03/15 02:13:02;;;;;;;4.62;1.80;;;;;;;24.34;37.23;98440.63;4441599;32;34536;-59
2023/03/15 02:15:30;;;;;;;3.35;1.65;;;;;;;24.33;37.15;98442.53;4454696;32;34455;-59
2023/03/15 02:17:57;;;;;;;5.60;1.95;;;;;;;24.34;37.13;98444.22;4441832;32;33079;-60
2023/03/15 02:20:50;;;;;;;6.28;1.92;;;;;;;24.33;37.19;98452.63;4468623;32;33444;-55
2023/03/15 02:23:19;;;;;;;6.18;1.95;;;;;;;24.32;37.20;98451.81;4468481;32;35202;-59
2023/03/15 02:25:56;;;;;;;8.85;2.05;;;;;;;24.31;37.31;98446.63;4454574;32;34085;-58
2023/03/15 02:28:26;;;;;;;4.60;1.75;;;;;;;24.30;37.36;98443.09;4453575;32;34717;-58
2023/03/15 02:30:53;;;;;;;10.32;2.00;;;;;;;24.30;37.36;98443.09;4454750;32;33357;-55
2023/03/15 02:33:35;;;;;;;7.50;2.25;;;;;;;24.29;37.33;98444.16;4454334;32;32804;-56
2023/03/15 02:36:11;;;;;;;5.35;1.62;;;;;;;24.28;37.26;98445.25;4454380;32;33860;-59
2023/03/15 02:38:38;;;;;;;6.30;1.73;;;;;;;24.30;37.34;98450.44;4454352;32;33917;-59
2023/03/15 02:41:06;;;;;;;4.10;1.90;;;;;;;24.27;37.39;98445.53;4468515;32;33667;-50
2023/03/15 02:43:33;;;;;;;5.07;2.10;;;;;;;24.27;37.30;98442.78;4441448;32;32722;-55
2023/03/15 02:46:01;;;;;;;4.78;1.60;;;;;;;24.27;37.40;98440.88;4454428;32;34751;-56
2023/03/15 02:48:30;;;;;;;5.30;1.67;;;;;;;24.28;37.38;98449.88;4468166;32;33884;-54
2023/03/15 02:50:57;;;;;;;3.67;1.85;;;;;;;24.27;37.31;98456.41;4426180;32;33048;-58
2023/03/15 02:53:25;;;;;;;2.78;1.50;;;;;;;24.26;37.30;98454.78;4438540;32;33478;-56
2023/03/15 02:55:53;;;;;;;2.78;1.52;;;;;;;24.25;37.42;98448.53;4452748;32;33935;-53
2023/03/15 02:58:20;;;;;;;3.80;1.70;;;;;;;24.26;37.40;98454.78;4452967;32;33057;-56
2023/03/15 03:00:48;;;;;;;7.82;1.85;;;;;;;24.24;37.45;98446.84;4453052;32;33365;-56
2023/03/15 03:03:17;;;;;;;3.17;1.45;;;;;;;24.24;37.46;98454.22;4452732;32;34696;-54
2023/03/15 03:05:45;;;;;;;3.97;1.80;;;;;;;24.25;37.52;98442.22;4452581;32;33888;-58
2023/03/15 03:08:15;;;;;;;3.80;1.55;;;;;;;24.23;37.60;98442.50;4453001;32;33971;-58
2023/03/15 03:10:43;;;;;;;4.75;1.73;;;;;;;24.22;37.56;98448.22;4452765;32;33523;-58
2023/03/15 03:13:10;;;;;;;2.70;1.40;;;;;;;24.22;37.52;98448.22;4451336;32;32868;-57
2023/03/15 03:15:38;;;;;;;3.33;1.75;;;;;;;24.19;37.62;98444.91;4453098;32;33544;-60
2023/03/15 03:18:06;;;;;;;4.07;1.87;;;;;;;24.21;37.57;98441.13;4452500;32;33718;-58
2023/03/15 03:20:33;;;;;;;4.18;1.35;;;;;;;24.21;37.66;98446.59;4451390;32;33175;-61
2023/03/15 03:23:05;;;;;;;4.35;1.70;;;;;;;24.19;37.81;98438.66;4452641;32;33856;-59
2023/03/15 03:25:32;;;;;;;3.30;1.58;;;;;;;24.18;37.74;98437.84;4438935;32;34770;-56
2023/03/15 03:28:02;;;;;;;4.15;1.83;;;;;;;24.18;37.63;98446.00;4452457;32;34715;-58
2023/03/15 03:30:30;;;;;;;4.22;1.40;;;;;;;24.18;37.65;98442.47;4452630;32;33535;-60
2023/03/15 03:32:58;;;;;;;6.97;1.73;;;;;;;24.17;37.62;98438.09;4452420;32;33863;-59
2023/03/15 03:35:26;;;;;;;3.22;1.60;;;;;;;24.16;37.66;98439.19;4453186;32;34139;-60
2023/03/15 03:37:54;;;;;;;5.03;1.85;;;;;;;24.16;37.62;98437.28;4438705;32;34076;-60
2023/03/15 03:40:22;;;;;;;2.47;1.20;;;;;;;24.15;37.65;98424.75;4452307;32;33228;-59
2023/03/15 03:42:49;;;;;;;3.53;1.50;;;;;;;24.17;37.63;98429.94;4425588;32;32967;-59
2023/03/15 03:45:17;;;;;;;2.35;1.37;;;;;;;24.15;37.61;98430.22;4437971;32;32644;-59
2023/03/15 03:47:46;;;;;;;2.90;1.35;;;;;;;24.14;37.56;98425.00;4452337;32;33588;-58
2023/03/15 03:50:14;;;;;;;4.45;1.60;;;;;;;24.13;37.57;98428.81;4458105;32;33500;-60
2023/03/15 03:52:42;;;;;;;4.40;1.65;;;;;;;24.13;37.66;98423.37;4467472;32;34091;-56
2023/03/15 03:55:13;;;;;;;2.58;1.30;;;;;;;24.11;37.60;98415.47;4468064;32;33813;-59
2023/03/15 03:57:41;;;;;;;4.62;1.58;;;;;;;24.12;37.58;98430.72;4452613;32;33578;-60
2023/03/15 04:00:13;;;;;;;3.58;1.50;;;;;;;24.10;37.54;98419.25;4456180;32;33455;-58
2023/03/15 04:02:41;;;;;;;5.68;1.40;;;;;;;24.10;37.60;98438.31;4453918;32;34734;-59
2023/03/15 04:05:10;;;;;;;1.92;1.40;;;;;;;24.10;37.57;98435.59;4467959;32;33750;-58
2023/03/15 04:07:38;;;;;;;4.00;1.30;;;;;;;24.10;37.58;98438.31;4467618;32;33823;-60
2023/03/15 04:10:06;;;;;;;2.22;1.50;;;;;;;24.08;37.57;98442.41;4467885;32;33206;-58
2023/03/15 04:12:34;;;;;;;3.17;1.45;;;;;;;24.07;37.53;98462.59;4467809;32;33950;-56
2023/03/15 04:15:03;;;;;;;2.72;1.58;;;;;;;24.07;37.58;98468.03;4467701;32;34879;-59
2023/03/15 04:17:31;;;;;;;3.08;1.40;;;;;;;24.06;37.61;98485.44;4467832;32;33598;-59
2023/03/15 04:20:00;;;;;;;3.80;1.60;;;;;;;24.06;37.61;98489.00;4467797;32;33403;-59
2023/03/15 04:22:29;;;;;;;;;;;;;;;24.05;37.70;98492.78;4468123;32;33691;-59
2023/03/15 04:24:56;;;;;;;4.78;1.40;;;;;;;24.16;37.48;98490.97;4468045;32;34283;-58
2023/03/15 04:27:24;;;;;;;3.42;1.75;;;;;;;24.07;37.58;98498.81;4453359;32;33874;-59
2023/03/15 04:29:52;;;;;;;3.12;1.52;;;;;;;24.04;37.59;98499.34;4467329;32;33089;-53
2023/03/15 04:32:20;;;;;;;2.92;1.30;;;;;;;24.02;37.67;98509.69;4458558;32;33774;-60
2023/03/15 04:34:50;;;;;;;2.12;1.37;;;;;;;24.02;37.69;98511.59;4452237;32;34771;-61
2023/03/15 04:37:18;;;;;;;6.20;1.77;;;;;;;24.01;37.62;98516.19;4451993;32;34119;-59
2023/03/15 04:39:46;;;;;;;3.03;1.60;;;;;;;24.01;37.67;98527.09;4452184;32;33829;-60
2023/03/15 04:42:15;;;;;;;2.72;1.40;;;;;;;23.99;37.71;98521.09;4467507;32;34658;-59
2023/03/15 04:44:42;;;;;;;3.95;1.55;;;;;;;24.00;37.64;98525.47;4467418;32;34341;-60
2023/03/15 04:47:11;;;;;;;6.72;1.58;;;;;;;23.99;37.71;98523.81;4467416;32;34430;-58
2023/03/15 04:49:39;;;;;;;5.35;1.60;;;;;;;23.99;37.75;98537.44;4453150;32;33026;-61
2023/03/15 04:52:07;;;;;;;4.30;1.55;;;;;;;24.00;37.77;98549.97;4468107;32;33818;-60
2023/03/15 04:54:38;;;;;;;6.95;1.50;;;;;;;23.99;37.76;98553.78;4469500;32;34682;-56
2023/03/15 04:57:07;;;;;;;4.10;1.75;;;;;;;23.99;37.70;98564.69;4469031;32;33982;-60
2023/03/15 04:59:35;;;;;;;4.18;1.50;;;;;;;23.97;37.68;98564.16;4469164;32;34132;-60
2023/03/15 05:02:03;;;;;;;3.92;1.40;;;;;;;23.98;37.63;98575.84;4453588;32;34446;-60
2023/03/15 05:04:32;;;;;;;3.00;1.58;;;;;;;23.98;37.63;98575.84;4446175;32;34210;-58
2023/03/15 05:06:59;;;;;;;3.60;1.30;;;;;;;23.98;37.68;98567.69;4454556;32;34132;-59
2023/03/15 05:09:28;;;;;;;3.95;1.62;;;;;;;23.97;37.70;98577.75;4456974;32;33623;-57
2023/03/15 05:11:56;;;;;;;7.87;1.80;;;;;;;23.98;37.77;98571.22;4438612;32;33210;-53
2023/03/15 05:14:26;;;;;;;4.62;1.58;;;;;;;23.98;37.81;98563.06;4469127;32;34029;-54
2023/03/15 05:16:57;;;;;;;2.40;1.30;;;;;;;23.97;37.82;98555.13;4469038;32;34541;-55
2023/03/15 05:19:26;;;;;;;6.55;1.50;;;;;;;23.96;37.83;98557.03;4469166;32;33869;-57
2023/03/15 05:21:54;;;;;;;3.47;1.70;;;;;;;23.97;37.78;98566.88;4454900;32;33838;-57
2023/03/15 05:24:22;;;;;;;2.67;1.50;;;;;;;23.97;37.79;98566.88;4439625;32;34722;-54
2023/03/15 05:26:53;;;;;;;3.83;1.40;;;;;;;23.97;37.72;98576.91;4453511;32;33863;-52
2023/03/15 05:29:21;;;;;;;2.37;1.30;;;;;;;23.96;37.81;98567.91;4453653;32;34253;-59
2023/03/15 05:31:51;;;;;;;5.87;1.58;;;;;;;23.96;37.91;98570.66;4439219;32;33993;-58
2023/03/15 05:34:18;;;;;;;2.47;1.42;;;;;;;23.95;37.94;98558.13;4439962;32;34893;-59
2023/03/15 05:36:46;;;;;;;3.92;1.27;;;;;;;23.96;37.85;98570.66;4453481;32;35219;-60
2023/03/15 05:39:15;;;;;;;5.45;1.35;;;;;;;23.95;37.90;98571.75;4453280;32;33561;-59
2023/03/15 05:41:43;;;;;;;2.55;1.45;;;;;;;23.94;37.93;98570.09;4453295;32;33640;-55
2023/03/15 05:44:14;;;;;;;4.40;1.42;;;;;;;23.95;37.92;98569.00;4453496;32;34823;-60
2023/03/15 05:46:42;;;;;;;5.28;1.58;;;;;;;23.94;37.92;98559.19;4453499;32;34229;-58
2023/03/15 05:49:09;;;;;;;3.15;1.45;;;;;;;23.93;37.97;98558.38;4438953;32;34095;-56
2023/03/15 05:51:37;;;;;;;4.82;1.70;;;;;;;23.93;38.01;98558.38;4463706;32;33491;-57
2023/03/15 05:54:05;;;;;;;4.43;1.33;;;;;;;23.94;37.93;98556.47;4454831;32;33777;-56
2023/03/15 05:56:52;;;;;;;1.90;1.08;;;;;;;23.91;37.94;98563.25;4462008;32;34339;-59
2023/03/15 05:59:20;;;;;;;2.33;1.10;;;;;;;23.90;37.95;98569.78;4468935;32;33152;-59
2023/03/15 06:01:48;;;;;;;4.03;1.48;;;;;;;23.90;37.94;98572.50;4454851;32;33459;-53
2023/03/15 06:04:16;;;;;;;3.15;1.17;;;;;;;23.90;38.01;98561.63;4454881;32;34784;-59
2023/03/15 06:06:44;;;;;;;2.87;1.25;;;;;;;23.90;37.90;98569.78;4468954;32;33610;-58
2023/03/15 06:09:11;;;;;;;7.70;1.70;;;;;;;23.90;37.90;98568.97;4468836;32;33216;-59
2023/03/15 06:11:39;;;;;;;3.30;1.52;;;;;;;23.90;37.92;98571.69;4468741;32;33978;-54
2023/03/15 06:14:09;;;;;;;3.53;1.60;;;;;;;23.89;37.90;98568.16;4468897;32;34783;-57
2023/03/15 06:16:37;;;;;;;3.15;1.15;;;;;;;23.90;37.90;98561.63;4469018;32;34672;-58
2023/03/15 06:19:06;;;;;;;4.00;1.50;;;;;;;23.89;37.85;98559.16;4454642;32;32977;-57
2023/03/15 06:21:33;;;;;;;3.00;1.30;;;;;;;23.88;37.86;98574.69;4468889;32;33456;-60
2023/03/15 06:24:02;;;;;;;5.25;1.35;;;;;;;23.88;37.89;98580.12;4452843;32;33095;-59
2023/03/15 06:26:30;;;;;;;2.42;1.33;;;;;;;23.88;37.89;98573.88;4454074;32;33831;-60
2023/03/15 06:28:58;;;;;;;3.22;1.08;;;;;;;23.89;37.86;98576.31;4468544;32;33331;-60
2023/03/15 06:31:25;;;;;;;4.82;1.48;;;;;;;23.89;37.92;98575.50;4468340;32;33802;-57
2023/03/15 06:33:53;;;;;;;2.58;1.23;;;;;;;23.87;37.91;98575.75;4454569;32;34000;-60
2023/03/15 06:36:22;;;;;;;3.17;1.55;;;;;;;23.87;37.82;98581.19;4454616;32;34262;-60
2023/03/15 06:38:49;;;;;;;3.80;1.50;;;;;;;23.86;37.88;98589.63;4453910;32;32344;-60
2023/03/15 06:41:17;;;;;;;3.37;1.48;;;;;;;23.86;37.88;98586.91;4453923;32;33788;-60
2023/03/15 06:43:45;;;;;;;4.95;1.30;;;;;;;23.85;37.88;98568.94;4468343;32;34121;-57
2023/03/15 06:46:12;;;;;;;4.43;1.80;;;;;;;23.85;37.90;98575.19;4468776;32;33789;-60
2023/03/15 06:48:40;;;;;;;3.75;1.42;;;;;;;23.85;37.84;98575.19;4468016;32;33474;-54
2023/03/15 06:51:08;;;;;;;2.95;1.40;;;;;;;23.85;37.84;98572.47;4468629;32;34515;-59
2023/03/15 06:53:35;;;;;;;4.30;1.25;;;;;;;23.85;37.84;98585.28;4468484;32;33690;-59
2023/03/15 06:56:03;;;;;;;4.32;1.37;;;;;;;23.84;37.81;98594.53;4468339;32;33858;-59
2023/03/15 06:58:31;;;;;;;2.28;1.10;;;;;;;23.83;37.83;98604.59;4454153;32;34170;-59
2023/03/15 07:00:58;;;;;;;3.33;1.27;;;;;;;23.83;37.82;98612.78;4468304;32;33724;-57
2023/03/15 07:03:26;;;;;;;5.10;1.48;;;;;;;23.83;37.88;98614.69;4468048;32;35287;-52
2023/03/15 07:05:54;;;;;;;5.57;1.52;;;;;;;23.82;37.83;98613.84;4468344;32;33561;-55
2023/03/15 07:08:21;;;;;;;1.70;1.05;;;;;;;23.84;37.84;98613.59;4468003;32;33054;-56
2023/03/15 07:10:49;;;;;;;2.50;1.40;;;;;;;23.82;37.79;98613.03;4468111;32;33872;-56
2023/03/15 07:13:17;;;;;;;2.67;1.35;;;;;;;23.82;37.78;98607.56;4467662;32;33649;-59
2023/03/15 07:15:46;;;;;;;3.05;1.20;;;;;;;23.81;37.80;98620.38;4437585;32;34853;-60
2023/03/15 07:18:14;;;;;;;2.85;1.58;;;;;;;23.81;37.79;98625.00;4452454;32;33378;-55
2023/03/15 07:20:41;;;;;;;4.75;1.62;;;;;;;23.81;37.79;98627.72;4452721;32;33935;-56
2023/03/15 07:23:09;;;;;;;3.08;1.12;;;;;;;23.81;37.86;98625.00;4452847;32;33848;-56
2023/03/15 07:25:36;;;;;;;4.90;1.62;;;;;;;23.80;37.92;98643.25;4452372;32;34723;-60
2023/03/15 07:28:21;;;;;;;3.15;1.27;;;;;;;23.79;37.83;98646.25;4452390;32;33103;-59
2023/03/15 07:30:59;;;;;;;4.57;1.52;;;;;;;23.79;37.71;98644.34;4452322;32;33985;-61
2023/03/15 07:33:28;;;;;;;5.30;1.48;;;;;;;23.81;37.80;98649.50;4443432;32;33685;-60
2023/03/15 07:35:55;;;;;;;10.68;1.50;;;;;;;23.78;37.78;98650.88;4445958;32;33644;-58
2023/03/15 07:38:24;;;;;;;2.85;1.30;;;;;;;23.79;37.79;98654.41;4467703;32;34290;-57
2023/03/15 07:40:52;;;;;;;4.62;1.50;;;;;;;23.78;37.82;98650.03;4426852;32;33012;-58
2023/03/15 07:43:20;;;;;;;3.08;1.35;;;;;;;23.78;37.85;98660.91;4467442;32;34139;-59
2023/03/15 07:45:48;;;;;;;2.70;1.40;;;;;;;23.78;37.84;98652.75;4468359;32;33646;-60
2023/03/15 07:48:16;;;;;;;4.60;0.95;;;;;;;23.78;37.88;98666.34;4440978;32;32443;-59
2023/03/15 07:50:44;;;;;;;4.80;1.50;;;;;;;23.77;37.75;98667.44;4436514;32;32818;-54
2023/03/15 07:53:11;;;;;;;2.80;1.37;;;;;;;23.77;37.77;98668.25;4452464;32;34483;-53
2023/03/15 07:55:39;;;;;;;4.78;1.50;;;;;;;23.78;37.85;98674.53;4450916;32;34195;-57
2023/03/15 07:58:07;;;;;;;2.05;1.10;;;;;;;23.77;37.89;98656.56;4452517;32;34043;-57
2023/03/15 08:00:34;;;;;;;9.23;1.58;;;;;;;23.78;37.85;98672.66;4452249;32;33493;-61
2023/03/15 08:03:03;;;;;;;5.10;1.37;;;;;;;23.78;37.98;98669.09;4452223;32;33901;-59
2023/03/15 08:05:30;;;;;;;2.90;1.23;;;;;;;23.78;37.98;98677.25;4438272;32;33691;-54
2023/03/15 08:07:58;;;;;;;2.97;1.52;;;;;;;23.79;37.92;98684.38;4438202;32;33313;-58
2023/03/15 08:10:26;;;;;;;8.23;1.40;;;;;;;23.79;37.93;98678.94;4452256;32;33743;-59
2023/03/15 08:12:53;;;;;;;5.43;1.37;;;;;;;23.80;37.84;98686.00;4452179;32;34065;-56
2023/03/15 08:15:21;;;;;;;7.40;1.30;;;;;;;23.78;37.79;98677.25;4452306;32;34786;-58
2023/03/15 08:17:49;;;;;;;8.27;1.60;;;;;;;23.78;37.75;98679.97;4464003;32;33115;-59
2023/03/15 08:20:17;;;;;;;5.45;1.40;;;;;;;23.78;37.72;98680.81;4462957;32;34552;-59
2023/03/15 08:22:45;;;;;;;8.05;1.67;;;;;;;23.79;37.65;98695.28;4444375;32;33611;-58
2023/03/15 08:25:16;;;;;;;7.53;1.20;;;;;;;23.79;37.59;98684.38;4433152;32;34001;-57
2023/03/15 08:27:43;;;;;;;4.22;1.40;;;;;;;23.81;37.55;98676.75;4449393;32;34764;-58
2023/03/15 08:30:12;;;;;;;5.05;1.70;;;;;;;23.82;37.49;98672.94;4451913;32;34628;-58
2023/03/15 08:32:40;;;;;;;7.25;1.62;;;;;;;23.81;37.57;98682.19;4438303;32;33684;-59
2023/03/15 08:35:08;;;;;;;4.43;1.42;;;;;;;23.82;37.58;98692.00;4451962;32;33712;-58
2023/03/15 08:37:35;;;;;;;5.50;1.70;;;;;;;23.82;37.39;98694.75;4412579;32;32443;-57
2023/03/15 08:40:09;;;;;;;5.12;1.30;;;;;;;23.82;37.24;98686.56;4451958;32;33996;-58
2023/03/15 08:42:37;;;;;;;6.70;1.70;;;;;;;23.81;37.19;98693.91;4451945;32;33860;-60
2023/03/15 08:45:05;;;;;;;3.40;1.20;;;;;;;23.82;37.11;98698.28;4452076;32;34101;-57
2023/03/15 08:47:36;;;;;;;6.50;1.55;;;;;;;23.83;37.04;98701.84;4424827;32;33328;-59
2023/03/15 08:50:06;;;;;;;2.85;1.45;;;;;;;23.82;37.04;98709.19;4451771;32;33650;-59
2023/03/15 08:52:33;;;;;;;4.33;1.43;;;;;;;23.82;37.04;98713.81;4440623;32;34759;-60
2023/03/15 08:55:03;;;;;;;3.00;1.37;;;;;;;23.84;37.01;98728.81;4467074;32;33923;-57
2023/03/15 08:57:32;;;;;;;4.57;1.37;;;;;;;23.83;37.01;98729.09;4467135;32;33330;-59
2023/03/15 09:00:00;;;;;;;8.23;1.37;;;;;;;23.84;36.94;98733.47;4440363;32;33998;-58
2023/03/15 09:02:28;;;;;;;2.60;1.45;;;;;;;23.83;36.93;98729.09;4427923;32;33791;-60
2023/03/15 09:04:55;;;;;;;3.67;1.87;;;;;;;23.82;36.90;98755.47;4467155;32;34591;-59
2023/03/15 09:07:23;;;;;;;3.67;1.17;;;;;;;23.82;36.90;98758.22;4440125;32;34176;-58
2023/03/15 09:09:53;;;;;;;3.97;1.50;;;;;;;23.83;36.81;98764.50;4452053;32;34109;-60
2023/03/15 09:12:20;;;;;;;5.28;1.80;;;;;;;23.84;36.77;98768.88;4437035;32;32627;-59
2023/03/15 09:14:48;;;;;;;5.78;2.10;;;;;;;23.82;36.83;98774.56;4463078;32;34215;-61
2023/03/15 09:17:15;;;;;;;3.50;1.58;;;;;;;23.84;36.86;98777.03;4452944;32;33429;-60
2023/03/15 09:19:43;;;;;;;3.78;1.50;;;;;;;23.84;36.78;98775.13;4451752;32;34407;-60
2023/03/15 09:22:11;;;;;;;8.10;1.80;;;;;;;23.85;36.77;98775.97;4453241;32;33906;-60
2023/03/15 09:24:51;;;;;;;8.63;1.85;;;;;;;23.85;36.81;98774.06;4466843;32;34315;-60
2023/03/15 09:27:18;;;;;;;9.77;2.03;;;;;;;23.87;36.76;98784.69;4452432;32;34196;-61
2023/03/15 09:29:46;;;;;;;5.43;1.85;;;;;;;23.86;36.75;98783.88;4466185;32;33975;-60
2023/03/15 09:32:14;;;;;;;7.50;2.05;;;;;;;23.87;36.77;98790.97;4452678;32;33826;-60
2023/03/15 09:34:41;;;;;;;12.40;1.95;;;;;;;23.88;36.77;98806.25;4462393;32;33814;-60
2023/03/15 09:37:09;;;;;;;4.00;1.83;;;;;;;23.87;36.72;98801.84;4466472;32;33433;-59
2023/03/15 09:39:37;;;;;;;8.45;1.83;;;;;;;23.90;36.72;98814.16;4468525;32;33917;-58
2023/03/15 09:42:40;;;;;;;9.10;2.00;;;;;;;23.89;36.75;98809.78;4468262;32;34694;-58
2023/03/15 09:45:23;;;;;;;5.40;2.53;;;;;;;23.90;36.77;98822.34;4409993;32;33851;-58
2023/03/15 09:47:59;;;;;;;11.70;2.83;;;;;;;23.87;32.80;98817.38;4441331;32;33288;-61
2023/03/15 09:50:32;;;;;;;7.57;3.30;;;;;;;23.76;30.68;98816.44;4452326;32;33983;-58
2023/03/15 09:53:02;;;;;;;7.47;2.83;;;;;;;23.66;29.04;98819.03;4450776;32;34638;-59
2023/03/15 09:55:29;;;;;;;6.60;2.40;;;;;;;23.55;26.97;98809.00;4440293;32;33572;-57
2023/03/15 09:58:00;;;;;;;8.80;2.78;;;;;;;23.45;30.55;98801.53;4455685;32;33840;-58
2023/03/15 10:00:47;;;;;;;7.47;2.70;;;;;;;23.45;32.55;98808.88;4454358;32;33195;-58
2023/03/15 10:03:46;;;;;;;5.50;2.20;;;;;;;23.53;33.06;98812.00;4429921;32;33472;-56
2023/03/15 10:06:18;;;;;;;10.65;2.15;;;;;;;23.63;33.25;98811.31;4450004;32;34194;-59
2023/03/15 10:08:46;;;;;;;12.68;2.47;;;;;;;23.75;33.41;98814.78;4441194;32;33277;-62
2023/03/15 10:11:38;;;;;;;11.73;2.15;;;;;;;23.90;33.48;98822.34;4468262;32;34728;-56
2023/03/15 10:14:59;;;;;;;15.77;2.97;;;;;;;24.10;33.46;98827.19;4408457;32;32893;-58
2023/03/15 10:17:44;;;;;;;8.27;2.45;;;;;;;24.25;33.61;98813.78;4428650;32;34255;-57
2023/03/15 10:20:20;;;;;;;15.63;2.58;;;;;;;24.34;33.65;98817.69;4452773;32;34312;-58
2023/03/15 10:22:57;;;;;;;13.23;2.10;;;;;;;24.44;33.68;98817.00;4434991;32;34758;-56
2023/03/15 10:25:28;;;;;;;10.38;2.12;;;;;;;24.51;33.76;98827.69;4441782;32;33255;-58
2023/03/15 10:28:20;;;;;;;10.77;2.33;;;;;;;24.56;33.74;98825.84;4467465;32;34661;-60
2023/03/15 10:30:48;;;;;;;14.00;3.22;;;;;;;24.65;33.79;98831.66;4468376;32;33379;-56
2023/03/15 10:33:35;;;;;;;14.35;2.55;;;;;;;24.67;33.82;98838.50;4453628;32;33066;-60
2023/03/15 10:36:15;;;;;;;12.10;2.85;;;;;;;24.76;33.79;98841.59;4441185;32;34675;-60
2023/03/15 10:38:43;;;;;;;14.07;2.95;;;;;;;24.78;33.87;98841.34;4453836;32;33675;-61
2023/03/15 10:41:13;;;;;;;10.63;2.83;;;;;;;24.82;33.88;98837.00;4447441;32;33352;-62
2023/03/15 10:43:56;;;;;;;8.02;3.03;;;;;;;24.84;33.88;98837.56;4453572;32;32673;-56
2023/03/15 10:46:24;;;;;;;15.77;2.62;;;;;;;24.89;33.80;98851.25;4452446;32;33914;-61
2023/03/15 10:48:58;;;;;;;11.15;2.47;;;;;;;24.90;33.79;98853.75;4451811;32;33921;-61
2023/03/15 10:51:30;;;;;;;14.27;2.72;;;;;;;24.87;33.90;98854.25;4448307;32;33483;-61
2023/03/15 10:54:00;;;;;;;8.85;2.33;;;;;;;24.89;33.89;98860.25;4467773;32;34759;-60
2023/03/15 10:56:29;;;;;;;12.07;2.90;;;;;;;24.88;33.98;98865.97;4453612;32;34104;-60
2023/03/15 10:58:57;;;;;;;14.93;3.00;;;;;;;24.85;34.07;98869.22;4441184;32;34441;-61
2023/03/15 11:01:39;;;;;;;17.12;3.05;;;;;;;24.86;34.21;98870.88;4455781;32;32999;-60
2023/03/15 11:04:17;;;;;;;13.43;3.50;;;;;;;24.83;34.33;98872.22;4441483;32;33947;-61
2023/03/15 11:07:06;;;;;;;13.35;2.80;;;;;;;24.82;34.44;98875.22;4454396;32;34179;-61
2023/03/15 11:09:41;;;;;;;11.55;2.83;;;;;;;24.80;34.44;98880.91;4468147;32;33254;-60
2023/03/15 11:12:14;;;;;;;8.80;2.78;;;;;;;24.76;34.66;98876.22;4468399;32;33053;-61
2023/03/15 11:14:46;;;;;;;12.52;2.72;;;;;;;24.75;34.83;98893.66;4463576;32;33950;-61
2023/03/15 11:17:26;;;;;;;10.63;2.62;;;;;;;24.73;34.98;98882.22;4456178;32;33511;-60
2023/03/15 11:19:58;;;;;;;19.45;3.10;;;;;;;24.72;34.96;98880.56;4432729;32;33646;-55
2023/03/15 11:22:26;;;;;;;11.25;2.55;;;;;;;24.68;35.09;98894.72;4442384;32;33216;-60
2023/03/15 11:24:54;;;;;;;17.52;3.22;;;;;;;24.66;35.11;98885.12;4437650;32;35160;-57
2023/03/15 11:27:22;;;;;;;14.13;3.12;;;;;;;24.65;35.30;98886.22;4439416;32;34437;-61
2023/03/15 11:29:58;;;;;;;11.23;2.60;;;;;;;24.61;35.26;98885.88;4452557;32;33598;-60
2023/03/15 11:32:27;;;;;;;13.57;2.97;;;;;;;24.60;35.24;98889.69;4428256;32;32445;-60
2023/03/15 11:35:16;;;;;;;11.50;2.67;;;;;;;24.57;35.43;98878.47;4453691;32;34175;-61
2023/03/15 11:37:54;;;;;;;11.57;2.35;;;;;;;24.59;35.44;98893.53;4441668;32;33402;-61
2023/03/15 11:40:33;;;;;;;18.37;3.45;;;;;;;24.55;35.47;98892.38;4454135;32;33583;-61
2023/03/15 11:43:01;;;;;;;17.62;3.08;;;;;;;24.51;35.59;98888.50;4440438;32;34190;-57
2023/03/15 11:45:49;;;;;;;12.20;2.50;;;;;;;24.49;35.67;98890.69;4458825;32;34575;-61